createdAt,value
2023-03-06T00:02:01.225Z,99987.03
2023-03-06T00:07:06.664Z,99982.55
2023-03-06T00:12:12.202Z,99977.50
2023-03-06T00:17:17.619Z,99971.25
2023-03-06T00:22:23.067Z,99969.56
2023-03-06T00:27:28.518Z,99963.27
2023-03-06T00:32:34.001Z,99960.19
2023-03-06T00:37:40.701Z,99962.60
2023-03-06T00:42:46.995Z,99957.30
2023-03-06T00:47:52.656Z,99942.13
2023-03-06T00:52:58.117Z,99937.14
2023-03-06T00:58:03.502Z,99938.14
2023-03-06T01:03:09.072Z,99933.47
2023-03-06T01:08:14.537Z,99926.07
2023-03-06T01:13:20.069Z,99920.40
2023-03-06T01:18:25.582Z,99914.85
2023-03-06T01:23:31.093Z,99909.17
2023-03-06T01:28:39.282Z,99896.97
2023-03-06T01:33:44.925Z,99889.48
2023-03-06T01:38:51.395Z,99886.66
2023-03-06T01:43:57.415Z,99884.48
2023-03-06T01:49:07.009Z,99881.86
2023-03-06T01:54:15.432Z,99870.92
2023-03-06T01:59:22.814Z,99864.33
2023-03-06T02:04:28.853Z,99856.73
2023-03-06T02:09:36.528Z,99858.73
2023-03-06T02:14:43.709Z,99852.81
2023-03-06T02:19:57.828Z,99852.50
2023-03-06T02:25:09.453Z,99849.17
2023-03-06T02:30:17.707Z,99850.28
2023-03-06T02:35:26.426Z,99842.16
2023-03-06T02:40:32.410Z,99837.97
2023-03-06T02:45:47.509Z,99830.98
2023-03-06T02:50:53.075Z,99832.34
2023-03-06T02:55:59.614Z,99826.73
2023-03-06T03:01:05.926Z,99825.11
2023-03-06T03:06:12.211Z,99823.17
2023-03-06T03:11:18.849Z,99834.78
2023-03-06T03:16:25.196Z,99817.95
2023-03-06T03:21:30.772Z,99811.27
2023-03-06T03:26:36.520Z,99820.19
2023-03-06T03:31:43.731Z,99818.71
2023-03-06T03:36:49.390Z,99808.79
2023-03-06T03:41:55.178Z,99812.64
2023-03-06T03:47:00.961Z,99807.62
2023-03-06T03:52:08.170Z,99802.91
2023-03-06T03:57:14.564Z,99801.86
2023-03-06T04:02:25.644Z,99798.05
2023-03-06T04:07:35.955Z,99794.71
2023-03-06T04:12:41.489Z,99794.60
2023-03-06T04:17:48.371Z,99781.89
2023-03-06T04:22:55.555Z,99781.22
2023-03-06T04:28:01.362Z,99775.70
2023-03-06T04:33:07.764Z,99774.33
2023-03-06T04:38:14.165Z,99772.16
2023-03-06T04:43:19.683Z,99773.20
2023-03-06T04:48:25.163Z,99764.48
2023-03-06T04:53:30.618Z,99762.03
2023-03-06T04:58:36.242Z,99751.89
2023-03-06T05:03:41.958Z,99747.02
2023-03-06T05:08:47.422Z,99753.12
2023-03-06T05:13:53.245Z,99750.12
2023-03-06T05:18:59.034Z,99745.76
2023-03-06T05:24:04.681Z,99743.20
2023-03-06T05:29:10.136Z,99731.67
2023-03-06T05:34:18.863Z,99736.75
2023-03-06T05:39:24.404Z,99744.12
2023-03-06T05:44:34.576Z,99742.68
2023-03-06T05:49:40.101Z,99742.73
2023-03-06T05:54:45.683Z,99735.56
2023-03-06T05:59:52.103Z,99734.92
2023-03-06T06:04:57.654Z,99736.59
2023-03-06T06:10:04.061Z,99743.13
2023-03-06T06:15:11.874Z,99742.28
2023-03-06T06:20:18.040Z,99734.95
2023-03-06T06:25:23.565Z,99737.58
2023-03-06T06:30:29.023Z,99736.89
2023-03-06T06:35:38.576Z,99729.82
2023-03-06T06:40:49.305Z,99728.10
2023-03-06T06:45:52.149Z,99730.81
2023-03-06T06:50:59.067Z,99732.06
2023-03-06T06:56:04.852Z,99732.33
2023-03-06T07:01:12.498Z,99736.22
2023-03-06T07:06:18.164Z,99731.18
2023-03-06T07:11:23.846Z,99731.18
2023-03-06T07:16:29.483Z,99732.38
2023-03-06T07:21:35.206Z,99738.00
2023-03-06T07:26:40.840Z,99733.41
2023-03-06T07:31:46.508Z,99744.70
2023-03-06T07:36:52.091Z,99742.78
2023-03-06T07:41:58.779Z,99744.52
2023-03-06T07:47:05.161Z,99746.41
2023-03-06T07:52:10.944Z,99746.52
2023-03-06T07:57:17.057Z,99737.91
2023-03-06T08:02:22.729Z,99748.53
2023-03-06T08:07:30.013Z,99745.12
2023-03-06T08:12:35.590Z,99753.27
2023-03-06T08:17:41.407Z,99759.98
2023-03-06T08:22:47.751Z,99766.63
2023-03-06T08:27:53.226Z,99765.30
2023-03-06T08:32:58.736Z,99757.63
2023-03-06T08:38:04.193Z,99761.44
2023-03-06T08:43:14.322Z,99765.80
2023-03-06T08:48:19.919Z,99767.78
2023-03-06T08:53:40.448Z,99762.66
2023-03-06T08:58:33.226Z,99757.97
2023-03-06T09:03:38.605Z,99760.54
2023-03-06T09:08:44.917Z,99760.00
2023-03-06T09:13:50.976Z,99756.38
2023-03-06T09:18:57.968Z,99757.43
2023-03-06T09:24:04.089Z,99769.92
2023-03-06T09:29:09.881Z,99763.25
2023-03-06T09:34:15.446Z,99769.34
2023-03-06T09:39:20.862Z,99766.61
2023-03-06T09:44:32.308Z,99772.13
2023-03-06T09:50:00.266Z,99768.66
2023-03-06T09:55:21.592Z,99760.38
2023-03-06T10:00:35.913Z,99766.70
2023-03-06T10:05:44.529Z,99766.61
2023-03-06T10:11:05.308Z,99766.61
2023-03-06T10:16:25.613Z,99767.25
2023-03-06T10:21:43.822Z,99763.91
2023-03-06T10:27:12.239Z,99767.23
2023-03-06T10:32:48.314Z,99770.72
2023-03-06T10:37:47.956Z,99771.65
2023-03-06T10:43:09.350Z,99769.55
2023-03-06T10:48:14.724Z,99780.64
2023-03-06T10:53:33.066Z,99777.64
2023-03-06T10:58:38.429Z,99766.64
2023-03-06T11:03:43.889Z,99765.70
2023-03-06T11:08:49.424Z,99746.05
2023-03-06T11:13:59.905Z,99746.05
2023-03-06T11:19:07.952Z,99747.65
2023-03-06T11:24:21.574Z,99747.65
2023-03-06T11:29:35.279Z,99745.75
2023-03-06T11:34:59.374Z,99746.40
2023-03-06T11:40:33.245Z,99741.28
2023-03-06T11:45:47.215Z,99737.09
2023-03-06T11:50:56.204Z,99727.53
2023-03-06T11:56:23.005Z,99729.01
2023-03-06T12:01:34.261Z,99722.20
2023-03-06T12:07:07.973Z,99717.09
2023-03-06T12:12:22.346Z,99708.41
2023-03-06T12:17:47.626Z,99706.73
2023-03-06T12:22:57.653Z,99718.25
2023-03-06T12:28:18.606Z,99712.78
2023-03-06T12:33:40.980Z,99720.98
2023-03-06T12:38:50.933Z,99709.61
2023-03-06T12:44:23.673Z,99704.44
2023-03-06T12:49:34.158Z,99711.80
2023-03-06T12:54:42.142Z,99706.54
2023-03-06T12:59:50.053Z,99691.34
2023-03-06T13:05:13.503Z,99693.40
2023-03-06T13:10:36.717Z,99691.66
2023-03-06T13:15:47.288Z,99686.91
2023-03-06T13:20:54.718Z,99686.02
2023-03-06T13:26:12.304Z,99681.37
2023-03-06T13:31:31.882Z,99683.97
2023-03-06T13:36:39.843Z,99680.16
2023-03-06T13:41:59.762Z,99674.13
2023-03-06T13:47:23.435Z,99675.45
2023-03-06T13:52:41.031Z,99674.36
2023-03-06T13:57:49.521Z,99671.34
2023-03-06T14:03:26.615Z,99672.70
2023-03-06T14:08:35.570Z,99673.47
2023-03-06T14:13:48.439Z,99664.38
2023-03-06T14:18:56.832Z,99663.91
2023-03-06T14:24:05.163Z,99650.33
2023-03-06T14:29:25.324Z,99647.16
2023-03-06T14:34:33.883Z,99641.55
2023-03-06T14:39:44.988Z,99637.47
2023-03-06T14:44:52.942Z,99640.33
2023-03-06T14:50:21.840Z,99651.98
2023-03-06T14:55:29.516Z,99642.22
2023-03-06T15:00:38.451Z,99636.48
2023-03-06T15:05:46.655Z,99641.14
2023-03-06T15:11:01.599Z,99635.75
2023-03-06T15:16:10.155Z,99632.55
2023-03-06T15:21:21.367Z,99633.34
2023-03-06T15:26:33.234Z,99629.72
2023-03-06T15:31:46.871Z,99632.75
2023-03-06T15:36:55.918Z,99642.28
2023-03-06T15:42:22.546Z,99643.37
2023-03-06T15:47:28.054Z,99638.36
2023-03-06T15:52:33.511Z,99661.19
2023-03-06T15:57:40.890Z,99657.57
2023-03-06T16:02:47.328Z,99657.09
2023-03-06T16:07:53.006Z,99652.59
2023-03-06T16:13:04.166Z,99653.09
2023-03-06T16:18:12.680Z,99646.42
2023-03-06T16:23:18.637Z,99647.36
2023-03-06T16:28:24.075Z,99641.20
2023-03-06T16:33:29.633Z,99642.84
2023-03-06T16:38:35.098Z,99637.25
2023-03-06T16:43:40.662Z,99643.48
2023-03-06T16:48:46.796Z,99645.36
2023-03-06T16:53:52.314Z,99645.36
2023-03-06T16:58:57.807Z,99645.28
2023-03-06T17:04:03.702Z,99631.88
2023-03-06T17:09:10.938Z,99642.84
2023-03-06T17:14:16.688Z,99648.94
2023-03-06T17:19:22.307Z,99656.64
2023-03-06T17:24:28.337Z,99653.61
2023-03-06T17:29:33.925Z,99658.55
2023-03-06T17:34:39.948Z,99658.59
2023-03-06T17:39:45.580Z,99653.51
2023-03-06T17:44:52.115Z,99661.73
2023-03-06T17:49:57.588Z,99659.77
2023-03-06T17:55:03.178Z,99673.76
2023-03-06T18:00:11.025Z,99673.22
2023-03-06T18:05:21.964Z,99674.14
2023-03-06T18:10:27.566Z,99667.70
2023-03-06T18:15:32.944Z,99673.37
2023-03-06T18:20:46.983Z,99670.33
2023-03-06T18:25:52.741Z,99666.89
2023-03-06T18:30:58.252Z,99670.84
2023-03-06T18:36:04.918Z,99667.97
2023-03-06T18:41:11.312Z,99673.09
2023-03-06T18:46:16.692Z,99674.20
2023-03-06T18:51:22.160Z,99671.84
2023-03-06T18:56:27.795Z,99669.35
2023-03-06T19:01:33.853Z,99668.77
2023-03-06T19:06:40.914Z,99664.42
2023-03-06T19:11:47.119Z,99663.50
2023-03-06T19:16:52.744Z,99662.52
2023-03-06T19:22:02.074Z,99667.57
2023-03-06T19:27:07.528Z,99666.83
2023-03-06T19:32:13.423Z,99669.29
2023-03-06T19:37:19.389Z,99663.00
2023-03-06T19:42:24.842Z,99667.41
2023-03-06T19:47:30.248Z,99663.84
2023-03-06T19:52:39.031Z,99661.15
2023-03-06T19:57:45.425Z,99665.34
2023-03-06T20:02:50.884Z,99669.58
2023-03-06T20:07:56.336Z,99665.86
2023-03-06T20:13:01.891Z,99670.09
2023-03-06T20:18:07.501Z,99670.95
2023-03-06T20:23:16.249Z,99665.37
2023-03-06T20:28:20.946Z,99663.38
2023-03-06T20:33:27.323Z,99666.81
2023-03-06T20:38:32.922Z,99662.97
2023-03-06T20:43:38.422Z,99660.56
2023-03-06T20:48:44.724Z,99653.12
2023-03-06T20:53:51.478Z,99657.87
2023-03-06T20:58:58.725Z,99653.52
2023-03-06T21:04:05.075Z,99651.23
2023-03-06T21:09:11.453Z,99649.52
2023-03-06T21:14:17.398Z,99644.96
2023-03-06T21:19:22.977Z,99635.25
2023-03-06T21:24:28.598Z,99628.41
2023-03-06T21:29:34.191Z,99622.34
2023-03-06T21:34:39.718Z,99624.86
2023-03-06T21:39:45.405Z,99623.28
2023-03-06T21:44:50.814Z,99619.13
2023-03-06T21:49:56.380Z,99609.85
2023-03-06T21:55:01.904Z,99599.56
2023-03-06T22:00:12.943Z,99596.08
2023-03-06T22:05:18.831Z,99594.00
2023-03-06T22:10:24.217Z,99590.33
2023-03-06T22:15:31.292Z,99591.02
2023-03-06T22:20:36.907Z,99588.39
2023-03-06T22:25:42.560Z,99585.01
2023-03-06T22:30:48.069Z,99586.30
2023-03-06T22:35:53.664Z,99581.09
2023-03-06T22:41:00.134Z,99576.52
2023-03-06T22:46:17.339Z,99572.25
2023-03-06T22:51:23.393Z,99567.61
2023-03-06T22:56:28.863Z,99562.98
2023-03-06T23:01:36.298Z,99565.04
2023-03-06T23:06:43.614Z,99562.58
2023-03-06T23:11:52.172Z,99558.63
2023-03-06T23:17:16.058Z,99545.83
2023-03-06T23:22:39.728Z,99543.08
2023-03-06T23:28:03.626Z,99532.59
2023-03-06T23:33:10.065Z,99532.98
2023-03-06T23:38:15.999Z,99529.38
2023-03-06T23:43:22.852Z,99528.37
2023-03-06T23:48:28.848Z,99527.86
2023-03-06T23:53:34.213Z,99526.55
2023-03-06T23:58:40.038Z,99522.22
